METAR AND TAF INFORMATION
METAR FOR KATL
ADDS - METARS form results

(0851 UTC 08 December 2021)
Data provider http://aviationweather.gov/metar/data/
 
METAR text: KATL 080843Z 07004KT 8SM BKN008 OVC022 07/06 A2997 RMK AO2 RAE33 TSB02E43 OCNL LTGICCG DSNT NE-SE TS MOV E P0039 T00720056 $
Conditions at: KATL (ATLANTA , GA, US) observed 0843 UTC 08 December 2021
Temperature: 7.2°C (45°F)
Dewpoint: 5.6°C (42°F) [RH = 90%]
Pressure (altimeter): 29.97 inches Hg (1015.0 mb)
Winds: from the ENE (70 degrees) at 5 MPH (4 knots; 2.1 m/s)
Visibility: 8 miles (13 km)
Ceiling: 800 feet AGL
Clouds: broken clouds at 800 feet AGL
overcast cloud deck at 2200 feet AGL
Weather:
SOME DATA ABOVE MAY BE INACCURATE!!!
"$" is an indication the sensor requires maintenance

METAR text: KATL 080833Z 08005KT 5SM TS BR BKN008CB BKN013 OVC046 07/06 A2997 RMK AO2 RAE33 TSB02 OCNL LTGICCG NE-SE-S TS NE-SE-S MOV NE P0039 T00720061 $
Conditions at: KATL (ATLANTA , GA, US) observed 0833 UTC 08 December 2021
Temperature: 7.2°C (45°F)
Dewpoint: 6.1°C (43°F) [RH = 93%]
Pressure (altimeter): 29.97 inches Hg (1015.0 mb)
Winds: from the E (80 degrees) at 6 MPH (5 knots; 2.6 m/s)
Visibility: 5 miles ( 8 km)
Ceiling: 800 feet AGL
Clouds: broken clouds at 800 feet AGL
broken clouds at 1300 feet AGL
overcast cloud deck at 4600 feet AGL
Weather: TS BR  (thunderstorm, mist)
SOME DATA ABOVE MAY BE INACCURATE!!!
"$" is an indication the sensor requires maintenance

METAR text: KATL 080822Z 07006KT 6SM R09R/4500VP6000FT -TSRA BR SCT008CB OVC046 07/06 A2997 RMK AO2 TSB02 OCNL LTGIC NE-SE-S TS NE-SE-S MOV NE P0039 T00720061 $
Conditions at: KATL (ATLANTA , GA, US) observed 0822 UTC 08 December 2021
Temperature: 7.2°C (45°F)
Dewpoint: 6.1°C (43°F) [RH = 93%]
Pressure (altimeter): 29.97 inches Hg (1015.0 mb)
Winds: from the ENE (70 degrees) at 7 MPH (6 knots; 3.1 m/s)
Visibility: 6 miles (10 km)
Ceiling: 4600 feet AGL
Clouds: scattered clouds at 800 feet AGL
overcast cloud deck at 4600 feet AGL
Weather: -TSRA BR  (light rain associated with thunderstorm(s), mist)
SOME DATA ABOVE MAY BE INACCURATE!!!
"$" is an indication the sensor requires maintenance

METAR text: KATL 080812Z 03005KT 1 1/2SM R09R/4000VP6000FT +TSRA BR OVC008CB 07/06 A2998 RMK AO2 TSB02 OCNL LTGIC NE-OHD-SW TS NE-OHD-SW MOV NE P0020 T00720061 $
Conditions at: KATL (ATLANTA , GA, US) observed 0812 UTC 08 December 2021
Temperature: 7.2°C (45°F)
Dewpoint: 6.1°C (43°F) [RH = 93%]
Pressure (altimeter): 29.98 inches Hg (1015.3 mb)
Winds: from the NNE (30 degrees) at 6 MPH (5 knots; 2.6 m/s)
Visibility: 1.50 miles (2.41 km)
Ceiling: 800 feet AGL
Clouds: overcast cloud deck at 800 feet AGL
Weather: +TSRA BR  (heavy rain associated with thunderstorm(s), mist)
SOME DATA ABOVE MAY BE INACCURATE!!!
"$" is an indication the sensor requires maintenance

METAR text: KATL 080802Z 06007KT 3SM -TSRA BR OVC008CB 08/06 A2997 RMK AO2 TSB02 OCNL LTGIC OHD-SW TS OHD-SW MOV NE P0011 T00780061 $
Conditions at: KATL (ATLANTA , GA, US) observed 0802 UTC 08 December 2021
Temperature: 7.8°C (46°F)
Dewpoint: 6.1°C (43°F) [RH = 89%]
Pressure (altimeter): 29.97 inches Hg (1015.0 mb)
Winds: from the ENE (60 degrees) at 8 MPH (7 knots; 3.6 m/s)
Visibility: 3 miles ( 5 km)
Ceiling: 800 feet AGL
Clouds: overcast cloud deck at 800 feet AGL
Weather: -TSRA BR  (light rain associated with thunderstorm(s), mist)
SOME DATA ABOVE MAY BE INACCURATE!!!
"$" is an indication the sensor requires maintenance

METAR text: KATL 080752Z 07007KT 2SM R09R/3500VP6000FT +RA BR OVC008CB 08/06 A2997 RMK AO2 RAB33 SLP151 OCNL LTG DSNT SW CB OVHD & DSNT SW P0011 T00780056 $
Conditions at: KATL (ATLANTA , GA, US) observed 0752 UTC 08 December 2021
Temperature: 7.8°C (46°F)
Dewpoint: 5.6°C (42°F) [RH = 86%]
Pressure (altimeter): 29.97 inches Hg (1015.0 mb)
[Sea-level pressure: 1015.1 mb]
Winds: from the ENE (70 degrees) at 8 MPH (7 knots; 3.6 m/s)
Visibility: 2.00 miles (3.22 km)
Ceiling: 800 feet AGL
Clouds: overcast cloud deck at 800 feet AGL
Weather: +RA BR  (heavy rain, mist)
SOME DATA ABOVE MAY BE INACCURATE!!!
"$" is an indication the sensor requires maintenance

Forecast for: KATL (ATLANTA , GA, US)
Text: KATL 080759Z 0808/0912 12006KT 5SM -SHRA OVC008
Forecast period: 0800 to 1200 UTC 08 December 2021
Forecast type: FROM: standard forecast or significant change
Winds: from the ESE (120 degrees) at 7 MPH (6 knots; 3.1 m/s)
Visibility: 5 miles (8 km)
Ceiling: 800 feet AGL
Clouds: overcast cloud deck at 800 feet AGL
Weather: -SHRA  (light rain showers)
Text: TEMPO 0808/0810 2SM -TSRA OVC006CB
Forecast period: 0800 to 1000 UTC 08 December 2021
Forecast type: TEMPORARY: The following changes expected for less than half the time period
Visibility: 2.00 miles (3.22 km)
Ceiling: 600 feet AGL
Clouds: overcast cloud deck at 600 feet AGL
Weather: -TSRA  (light rain associated with thunderstorm(s))
Text: FM081200 35005KT 4SM -SHRA BKN004 OVC006
Forecast period: 1200 to 1600 UTC 08 December 2021
Forecast type: FROM: standard forecast or significant change
Winds: from the N (350 degrees) at 6 MPH (5 knots; 2.6 m/s)
Visibility: 4 miles (6 km)
Ceiling: 400 feet AGL
Clouds: broken clouds at 400 feet AGL
overcast cloud deck at 600 feet AGL
Weather: -SHRA  (light rain showers)
Text: FM081600 30008KT P6SM VCSH SCT007 BKN012
Forecast period: 1600 to 1900 UTC 08 December 2021
Forecast type: FROM: standard forecast or significant change
Winds: from the WNW (300 degrees) at 9 MPH (8 knots; 4.1 m/s)
Visibility: 6 or more miles (10+ km)
Ceiling: 1200 feet AGL
Clouds: scattered clouds at 700 feet AGL
broken clouds at 1200 feet AGL
Weather: VCSH  (showers in vicinity)
Text: FM081900 31010KT P6SM FEW025 SCT035
Forecast period: 1900 UTC 08 December 2021 to 0100 UTC 09 December 2021
Forecast type: FROM: standard forecast or significant change
Winds: from the NW (310 degrees) at 12 MPH (10 knots; 5.1 m/s)
Visibility: 6 or more miles (10+ km)
Ceiling: at least 12,000 feet AGL
Clouds: few clouds at 2500 feet AGL
scattered clouds at 3500 feet AGL
Weather: no significant weather forecast for this period
Text: FM090100 32005KT P6SM SCT050
Forecast period: 0100 to 1200 UTC 09 December 2021
Forecast type: FROM: standard forecast or significant change
Winds: from the NW (320 degrees) at 6 MPH (5 knots; 2.6 m/s)
Visibility: 6 or more miles (10+ km)
Ceiling: at least 12,000 feet AGL
Clouds: scattered clouds at 5000 feet AGL
Weather: no significant weather forecast for this period

 AIRPORT MAP

 RUNWAY INFORMATION
Runway 08R Runway length 10000 ft Runway width 150 ft
Runway elevation 1024 ft Runway displaced threshold 0 ft Runway heading 90
Runway 26L Runway length 10000 ft Runway width 150 ft
Runway elevation 995 ft Runway displaced threshold 0 ft Runway heading 270
Runway 08L Runway length 9000 ft Runway width 150 ft
Runway elevation 1015 ft Runway displaced threshold 0 ft Runway heading 90
Runway 26R Runway length 9000 ft Runway width 150 ft
Runway elevation 990 ft Runway displaced threshold 0 ft Runway heading 270
Runway 09R Runway length 9001 ft Runway width 150 ft
Runway elevation 1026 ft Runway displaced threshold 0 ft Runway heading 90
Runway 27L Runway length 9001 ft Runway width 150 ft
Runway elevation 985 ft Runway displaced threshold 0 ft Runway heading 270
Runway 09L Runway length 11890 ft Runway width 150 ft
Runway elevation 1019 ft Runway displaced threshold 0 ft Runway heading 90
Runway 27R Runway length 11890 ft Runway width 150 ft
Runway elevation 978 ft Runway displaced threshold 0 ft Runway heading 270
Runway 10 Runway length 9000 ft Runway width 150 ft
Runway elevation 1000 ft Runway displaced threshold 0 ft Runway heading 90
Runway 28 Runway length 9000 ft Runway width 150 ft
Runway elevation 998 ft Runway displaced threshold 0 ft Runway heading 270

 AIRPORT FREQUENCIES
Type APP Name ATLANTA AP Frequency 118.35 MHZ
Type ATIS Name ATIS Frequency 119.65 MHZ
Type CLD Name CLNC DEL Frequency 118.1 MHZ
Type DEP Name ATLANTA DE Frequency 125 MHZ
Type GND Name GND Frequency 121.65 MHZ
Type RDO Name MACON RDO Frequency 116.9 MHZ
Type SFA Name SFA Frequency 30.697 MHZ
Type TWR Name ATLANTA TW Frequency 119.1 MHZ
Type UNIC Name UNICOM Frequency 122.95 MHZ

 AIRPORT NEAR NAVIGATION AIDS
Type NDB Name Catta Frequency 375 KHZ
Type VORTAC Name Atlanta Frequency 116900 KHZ
Type NDB Name Redan Frequency 266 KHZ